Terminal Aerodrome Forecast
Issued by NWS Billings, MT

Home | Current Version | Previous Version | Graphics & Text | Print | Product List | Glossary On
Versions: 1 2 3 4 5 6 7 8 9 10 11 12
000
FTUS45 KBYZ 180539
TAFMLS
TAF
KMLS 180539Z 1806/1906 09009KT P6SM VCSH SCT100 BKN200
     FM181800 09011KT P6SM VCTS FEW070CB BKN150=

USA.gov is the U.S. government's official web portal to all federal, state and local government web resources and services.